John Quigg — WDB9828 — position and weather

sailwx.info

Track history (hours):
 
Tides and Currents Weather Stations Pressure Air Temp Water Temp Dewpoint Dewpoint Depression Visibility Wind Speed Wind Dir Waves Ship Positions

John Quigg

Owner: Harley Marine Services, Inc, Seattle, WA. More information available from US FCC via Universal Licensing System and Coast Guard Vessel Documentation Center.

Last reported at 2016-Dec-01 23:03 UTC. Time now 2016-Dec-03 13:41 UTC.
Position N 33°44' W 118°16'.

Length 27 m.

MMSI: 365934954.

Date/timePositionNaut miles runAvg speedWind from/ knotsBaromVisibWave heightAir tempDewpointWater temp
2016-Dec-01 23:03N 33°44' W 118°16'0 0.0
2016-Dec-01 22:33N 33°44' W 118°16'0 0.0
2016-Dec-01 02:25N 33°44' W 118°15'2 2.2
2016-Dec-01 01:24N 33°46' W 118°16'1 1.6
2016-Dec-01 00:32N 33°45' W 118°17'3 0.1
2016-Nov-30 02:20N 33°43' W 118°13'2 1.9
2016-Nov-30 01:14N 33°44' W 118°16'0 0.0
2016-Nov-30 00:30N 33°44' W 118°16'0 0.0
2016-Nov-29 16:19N 33°44' W 118°16'0 0.1
2016-Nov-29 15:33N 33°44' W 118°16'2 1.7
2016-Nov-29 14:31N 33°46' W 118°16'3 3.1
2016-Nov-29 13:33N 33°43' W 118°15'1 1.2
2016-Nov-29 12:23N 33°44' W 118°16'0 0.0
2016-Nov-28 11:03N 33°44' W 118°15'0 0.0
2016-Nov-26 13:30N 33°44' W 118°16'2 1.2
2016-Nov-26 11:33N 33°45' W 118°13'2 2.4
2016-Nov-26 10:32N 33°44' W 118°16'0 0.0
2016-Nov-26 09:30N 33°44' W 118°16'0 0.0
2016-Nov-26 08:33N 33°44' W 118°16'0 0.0
2016-Nov-26 06:26N 33°44' W 118°16'0 0.0
2016-Nov-26 04:33N 33°44' W 118°16'0 0.0
2016-Nov-26 03:24N 33°44' W 118°16'1 1.5
2016-Nov-26 02:34N 33°45' W 118°16'0 0.3
2016-Nov-26 01:33N 33°45' W 118°16'1 1.4
2016-Nov-26 00:33N 33°44' W 118°16'1 0.1
2016-Nov-25 14:32N 33°43' W 118°16'0 0.2
2016-Nov-25 13:18N 33°43' W 118°16'1 0.3
2016-Nov-25 10:18N 33°44' W 118°16'0 0.0
2016-Nov-25 09:17N 33°44' W 118°16'0 0.0
2016-Nov-25 01:20N 33°44' W 118°16'0 0.0
2016-Nov-25 00:33N 33°44' W 118°16'0 0.0
2016-Nov-24 18:30N 33°44' W 118°16'0 0.0
2016-Nov-24 17:33N 33°44' W 118°16'0 0.0
2016-Nov-24 16:33N 33°44' W 118°16'0 0.0
2016-Nov-24 15:33N 33°44' W 118°16'0 0.0
2016-Nov-24 14:33N 33°44' W 118°16'0 0.0
2016-Nov-24 13:33N 33°44' W 118°16'0 0.0
2016-Nov-24 12:33N 33°44' W 118°16'0 0.0
2016-Nov-24 11:29N 33°44' W 118°16'0 0.0
2016-Nov-24 10:26N 33°44' W 118°16'0 0.0
2016-Nov-24 03:13N 33°44' W 118°16'0 0.0
2016-Nov-24 01:32N 33°44' W 118°16'0 0.0
2016-Nov-23 23:33N 33°44' W 118°16'0 0.0
2016-Nov-23 20:24N 33°44' W 118°16'3 0.2
2016-Nov-23 02:08N 33°44' W 118°12'2 1.2
2016-Nov-23 00:28N 33°46' W 118°14'2 2.6
2016-Nov-22 23:31N 33°45' W 118°16'1 1.2
2016-Nov-22 22:33N 33°44' W 118°16'  
Track history (hours):
 
Tides and Currents Weather Stations Pressure Air Temp Water Temp Dewpoint Dewpoint Depression Visibility Wind Speed Wind Dir Waves Ship Positions

John Quigg

Owner: Harley Marine Services, Inc, Seattle, WA. More information available from US FCC via Universal Licensing System and Coast Guard Vessel Documentation Center.

Last reported at 2016-Dec-01 23:03 UTC. Time now 2016-Dec-03 13:41 UTC.
Position N 33°44' W 118°16'.

Length 27 m.

MMSI: 365934954.

Date/timePositionNaut miles runAvg speedWind from/ knotsBaromVisibWave heightAir tempDewpointWater temp
2016-Dec-01 23:03N 33°44' W 118°16'0 0.0
2016-Dec-01 22:33N 33°44' W 118°16'0 0.0
2016-Dec-01 02:25N 33°44' W 118°15'2 2.2
2016-Dec-01 01:24N 33°46' W 118°16'1 1.6
2016-Dec-01 00:32N 33°45' W 118°17'3 0.1
2016-Nov-30 02:20N 33°43' W 118°13'2 1.9
2016-Nov-30 01:14N 33°44' W 118°16'0 0.0
2016-Nov-30 00:30N 33°44' W 118°16'0 0.0
2016-Nov-29 16:19N 33°44' W 118°16'0 0.1
2016-Nov-29 15:33N 33°44' W 118°16'2 1.7
2016-Nov-29 14:31N 33°46' W 118°16'3 3.1
2016-Nov-29 13:33N 33°43' W 118°15'1 1.2
2016-Nov-29 12:23N 33°44' W 118°16'0 0.0
2016-Nov-28 11:03N 33°44' W 118°15'0 0.0
2016-Nov-26 13:30N 33°44' W 118°16'2 1.2
2016-Nov-26 11:33N 33°45' W 118°13'2 2.4
2016-Nov-26 10:32N 33°44' W 118°16'0 0.0
2016-Nov-26 09:30N 33°44' W 118°16'0 0.0
2016-Nov-26 08:33N 33°44' W 118°16'0 0.0
2016-Nov-26 06:26N 33°44' W 118°16'0 0.0
2016-Nov-26 04:33N 33°44' W 118°16'0 0.0
2016-Nov-26 03:24N 33°44' W 118°16'1 1.5
2016-Nov-26 02:34N 33°45' W 118°16'0 0.3
2016-Nov-26 01:33N 33°45' W 118°16'1 1.4
2016-Nov-26 00:33N 33°44' W 118°16'1 0.1
2016-Nov-25 14:32N 33°43' W 118°16'0 0.2
2016-Nov-25 13:18N 33°43' W 118°16'1 0.3
2016-Nov-25 10:18N 33°44' W 118°16'0 0.0
2016-Nov-25 09:17N 33°44' W 118°16'0 0.0
2016-Nov-25 01:20N 33°44' W 118°16'0 0.0
2016-Nov-25 00:33N 33°44' W 118°16'0 0.0
2016-Nov-24 18:30N 33°44' W 118°16'0 0.0
2016-Nov-24 17:33N 33°44' W 118°16'0 0.0
2016-Nov-24 16:33N 33°44' W 118°16'0 0.0
2016-Nov-24 15:33N 33°44' W 118°16'0 0.0
2016-Nov-24 14:33N 33°44' W 118°16'0 0.0
2016-Nov-24 13:33N 33°44' W 118°16'0 0.0
2016-Nov-24 12:33N 33°44' W 118°16'0 0.0
2016-Nov-24 11:29N 33°44' W 118°16'0 0.0
2016-Nov-24 10:26N 33°44' W 118°16'0 0.0
2016-Nov-24 03:13N 33°44' W 118°16'0 0.0
2016-Nov-24 01:32N 33°44' W 118°16'0 0.0
2016-Nov-23 23:33N 33°44' W 118°16'0 0.0
2016-Nov-23 20:24N 33°44' W 118°16'3 0.2
2016-Nov-23 02:08N 33°44' W 118°12'2 1.2
2016-Nov-23 00:28N 33°46' W 118°14'2 2.6
2016-Nov-22 23:31N 33°45' W 118°16'1 1.2
2016-Nov-22 22:33N 33°44' W 118°16'  

Dump ship's entire track history